createdAt,value
2019-03-11T00:00:01.487Z,2.54
2019-03-11T00:01:11.175Z,2.52
2019-03-11T00:02:21.128Z,2.5
2019-03-11T00:03:30.836Z,2.47
2019-03-11T00:04:41.082Z,2.52
2019-03-11T00:05:51.019Z,2.52
2019-03-11T00:07:00.961Z,2.46
2019-03-11T00:08:10.919Z,2.54
2019-03-11T00:09:20.851Z,2.5
2019-03-11T00:10:30.793Z,2.52
2019-03-11T00:11:40.749Z,2.46
2019-03-11T00:12:50.189Z,2.54
2019-03-11T00:13:59.884Z,2.52
2019-03-11T00:15:09.817Z,2.47
2019-03-11T00:16:19.761Z,2.52
2019-03-11T00:17:29.466Z,2.39
2019-03-11T00:18:39.402Z,2.46
2019-03-11T00:19:49.083Z,2.5
2019-03-11T00:20:58.758Z,2.46
2019-03-11T00:22:08.698Z,2.5
2019-03-11T00:23:18.643Z,2.46
2019-03-11T00:24:28.330Z,2.41
2019-03-11T00:25:38.271Z,2.41
2019-03-11T00:26:47.699Z,2.43
2019-03-11T00:27:57.425Z,2.43
2019-03-11T00:29:07.140Z,2.43
2019-03-11T00:30:17.082Z,2.41
2019-03-11T00:31:27.033Z,2.39
2019-03-11T00:32:36.728Z,2.43
2019-03-11T00:33:46.421Z,2.36
2019-03-11T00:34:56.358Z,2.39
2019-03-11T00:36:06.299Z,2.39
2019-03-11T00:37:15.735Z,2.34
2019-03-11T00:38:25.673Z,2.39
2019-03-11T00:39:35.595Z,2.43
2019-03-11T00:40:45.294Z,2.37
2019-03-11T00:41:55.236Z,2.34
2019-03-11T00:43:05.195Z,2.37
2019-03-11T00:44:14.890Z,2.36
2019-03-11T00:45:26.857Z,2.43
2019-03-11T00:46:36.793Z,2.44
2019-03-11T00:47:46.468Z,2.41
2019-03-11T00:49:07.205Z,2.43
2019-03-11T00:50:16.641Z,2.41
2019-03-11T00:51:26.600Z,2.37
2019-03-11T00:52:36.573Z,2.4
2019-03-11T00:53:46.636Z,2.46
2019-03-11T00:54:56.360Z,2.39
2019-03-11T00:56:06.035Z,2.39
2019-03-11T00:57:15.987Z,2.41
2019-03-11T00:58:26.192Z,2.37
2019-03-11T00:59:35.884Z,2.46
2019-03-11T01:00:45.817Z,2.39
2019-03-11T01:01:55.774Z,2.39
2019-03-11T01:03:05.714Z,2.44
2019-03-11T01:04:15.395Z,2.41
2019-03-11T01:05:24.590Z,2.39
2019-03-11T01:06:34.543Z,2.41
2019-03-11T01:07:44.260Z,2.4
2019-03-11T01:08:54.248Z,2.39
2019-03-11T01:10:03.776Z,2.4
2019-03-11T01:11:13.719Z,2.4
2019-03-11T01:12:23.409Z,2.44
2019-03-11T01:13:33.094Z,2.41
2019-03-11T01:14:43.032Z,2.43
2019-03-11T01:15:52.731Z,2.4
2019-03-11T01:17:02.691Z,2.37
2019-03-11T01:18:12.773Z,2.43
2019-03-11T01:19:22.714Z,2.4
2019-03-11T01:20:32.664Z,2.39
2019-03-11T01:21:42.117Z,2.4
2019-03-11T01:22:52.070Z,2.43
2019-03-11T01:24:01.749Z,2.34
2019-03-11T01:25:11.702Z,2.37
2019-03-11T01:26:21.645Z,2.37
2019-03-11T01:27:31.593Z,2.39
2019-03-11T01:28:41.533Z,2.37
2019-03-11T01:29:51.420Z,2.36
2019-03-11T01:31:01.097Z,2.39
2019-03-11T01:32:11.035Z,2.34
2019-03-11T01:33:20.739Z,2.37
2019-03-11T01:34:30.692Z,2.39
2019-03-11T01:35:40.633Z,2.36
2019-03-11T01:36:50.585Z,2.37
2019-03-11T01:38:00.530Z,2.39
2019-03-11T01:39:10.518Z,2.43
2019-03-11T01:40:20.455Z,2.36
2019-03-11T01:41:30.394Z,2.39
2019-03-11T01:42:40.076Z,2.36
2019-03-11T01:43:50.016Z,2.39
2019-03-11T01:44:59.952Z,2.37
2019-03-11T01:46:09.647Z,2.39
2019-03-11T01:47:19.335Z,2.43
2019-03-11T01:48:29.278Z,2.33
2019-03-11T01:49:38.968Z,2.41
2019-03-11T01:50:48.909Z,2.39
2019-03-11T01:51:58.604Z,2.44
2019-03-11T01:53:08.036Z,2.44
2019-03-11T01:54:17.957Z,2.51
2019-03-11T01:55:27.643Z,2.4
2019-03-11T01:56:37.336Z,2.41
2019-03-11T01:57:47.286Z,2.52
2019-03-11T01:58:57.211Z,2.5
2019-03-11T02:00:07.145Z,2.52
2019-03-11T02:01:16.844Z,2.47
2019-03-11T02:02:26.830Z,2.4
2019-03-11T02:03:36.768Z,2.41
2019-03-11T02:04:46.706Z,2.44
2019-03-11T02:05:56.455Z,2.44
2019-03-11T02:07:06.160Z,2.46
2019-03-11T02:08:15.856Z,2.51
2019-03-11T02:09:25.532Z,2.5
2019-03-11T02:10:35.224Z,2.46
2019-03-11T02:11:45.158Z,2.44
2019-03-11T02:12:54.860Z,2.51
2019-03-11T02:14:04.866Z,2.52
2019-03-11T02:15:14.806Z,2.47
2019-03-11T02:16:24.498Z,2.4
2019-03-11T02:17:33.952Z,2.46
2019-03-11T02:18:43.948Z,2.36
2019-03-11T02:19:53.633Z,2.37
2019-03-11T02:21:03.564Z,2.34
2019-03-11T02:22:13.244Z,2.39
2019-03-11T02:23:23.183Z,2.41
2019-03-11T02:24:32.620Z,2.4
2019-03-11T02:25:42.550Z,2.4
2019-03-11T02:26:52.490Z,2.41
2019-03-11T02:28:02.424Z,2.44
2019-03-11T02:29:11.865Z,2.4
2019-03-11T02:30:21.827Z,2.22
2019-03-11T02:31:31.532Z,2.4
2019-03-11T02:32:41.526Z,2.25
2019-03-11T02:33:51.491Z,2.39
2019-03-11T02:35:01.469Z,2.33
2019-03-11T02:36:11.471Z,2.25
2019-03-11T02:37:21.169Z,2.26
2019-03-11T02:38:31.139Z,2.32
2019-03-11T02:39:41.116Z,2.33
2019-03-11T02:40:50.834Z,2.37
2019-03-11T02:42:00.772Z,2.34
2019-03-11T02:43:10.218Z,2.33
2019-03-11T02:44:20.172Z,2.28
2019-03-11T02:45:30.156Z,2.26
2019-03-11T02:46:40.164Z,2.26
2019-03-11T02:47:50.131Z,2.25
2019-03-11T02:49:00.124Z,2.22
2019-03-11T02:50:10.090Z,2.12
2019-03-11T02:51:19.552Z,2.14
2019-03-11T02:52:29.530Z,2.05
2019-03-11T02:53:39.270Z,2.05
2019-03-11T02:54:49.219Z,2.01
2019-03-11T02:55:59.204Z,2
2019-03-11T02:57:09.228Z,1.89
2019-03-11T02:58:19.191Z,1.88
2019-03-11T02:59:29.129Z,1.86
2019-03-11T03:00:40.194Z,1.81
2019-03-11T03:01:49.898Z,1.75
2019-03-11T03:02:59.852Z,1.68
2019-03-11T03:04:09.801Z,1.7
2019-03-11T03:05:19.567Z,1.7
2019-03-11T03:06:29.570Z,1.75
2019-03-11T03:07:39.565Z,1.64
2019-03-11T03:08:48.992Z,1.64
2019-03-11T03:09:58.958Z,1.74
2019-03-11T03:11:08.195Z,1.78
2019-03-11T03:12:17.658Z,1.7
2019-03-11T03:13:27.344Z,1.64
2019-03-11T03:14:36.798Z,1.7
2019-03-11T03:15:46.520Z,1.68
2019-03-11T03:16:56.234Z,1.76
2019-03-11T03:18:05.703Z,1.79
2019-03-11T03:19:15.667Z,1.75
2019-03-11T03:20:25.365Z,1.76
2019-03-11T03:21:35.317Z,1.79
2019-03-11T03:22:44.796Z,1.81
2019-03-11T03:23:54.522Z,1.82
2019-03-11T03:25:04.244Z,1.79
2019-03-11T03:26:13.959Z,1.79
2019-03-11T03:27:23.667Z,1.85
2019-03-11T03:28:33.378Z,1.89
2019-03-11T03:29:43.329Z,1.88
2019-03-11T03:30:53.295Z,1.89
2019-03-11T03:32:03.301Z,1.92
2019-03-11T03:33:12.858Z,1.95
2019-03-11T03:34:22.837Z,1.89
2019-03-11T03:35:32.820Z,1.97
2019-03-11T03:36:42.798Z,1.89
2019-03-11T03:37:52.739Z,1.89
2019-03-11T03:39:02.679Z,1.88
2019-03-11T03:40:12.391Z,1.92
2019-03-11T03:41:21.954Z,1.95
2019-03-11T03:42:31.952Z,1.97
2019-03-11T03:43:41.503Z,1.93
2019-03-11T03:44:51.211Z,1.92
2019-03-11T03:46:01.157Z,1.88
2019-03-11T03:47:25.550Z,1.97
2019-03-11T03:48:35.861Z,1.93
2019-03-11T03:49:46.255Z,1.89
2019-03-11T03:50:56.262Z,1.97
2019-03-11T03:52:05.987Z,1.85
2019-03-11T03:53:15.694Z,1.97
2019-03-11T03:54:25.448Z,1.92
2019-03-11T03:55:35.147Z,2.08
2019-03-11T03:56:45.109Z,1.89
2019-03-11T03:57:58.942Z,2.03
2019-03-11T03:59:08.920Z,2
2019-03-11T04:00:18.610Z,2.07
2019-03-11T04:01:28.545Z,2.03
2019-03-11T04:02:38.598Z,2.04
2019-03-11T04:03:48.295Z,2.05
2019-03-11T04:04:57.749Z,2.01
2019-03-11T04:06:08.087Z,2.05
2019-03-11T04:07:18.101Z,2.07
2019-03-11T04:08:28.051Z,2.15
2019-03-11T04:09:38.017Z,2.15
2019-03-11T04:10:47.973Z,2.15
2019-03-11T04:11:57.943Z,2.18
2019-03-11T04:13:07.655Z,2.16
2019-03-11T04:14:17.361Z,2.16
2019-03-11T04:15:26.829Z,2.15
2019-03-11T04:16:36.785Z,2.14
2019-03-11T04:17:46.764Z,2.12
2019-03-11T04:18:56.733Z,2.14
2019-03-11T04:20:06.698Z,2.14
2019-03-11T04:21:16.410Z,2.12
2019-03-11T04:22:26.369Z,2.12
2019-03-11T04:23:36.307Z,2.21
2019-03-11T04:24:46.016Z,2.12
2019-03-11T04:25:55.752Z,2.15
2019-03-11T04:27:05.444Z,2.1
2019-03-11T04:28:14.894Z,2.08
2019-03-11T04:29:24.577Z,2.15
2019-03-11T04:30:34.549Z,2.16
2019-03-11T04:31:44.507Z,2.19
2019-03-11T04:32:54.461Z,2.16
2019-03-11T04:34:04.407Z,2.15
2019-03-11T04:35:13.927Z,2.14
2019-03-11T04:36:23.890Z,2.16
2019-03-11T04:37:33.837Z,2.12
2019-03-11T04:38:43.769Z,2.12
2019-03-11T04:39:53.616Z,2.16
2019-03-11T04:41:03.607Z,2.15
2019-03-11T04:42:13.655Z,2.15
2019-03-11T04:43:23.404Z,2.12
2019-03-11T04:44:33.340Z,2.16
2019-03-11T04:45:42.778Z,2.14
2019-03-11T04:46:52.473Z,2.16
2019-03-11T04:48:01.905Z,2.14
2019-03-11T04:49:11.906Z,2.22
2019-03-11T04:50:21.856Z,2.1
2019-03-11T04:51:31.537Z,2.22
2019-03-11T04:52:41.232Z,2.21
2019-03-11T04:53:51.168Z,2.22
2019-03-11T04:55:00.871Z,2.23
2019-03-11T04:56:10.814Z,2.23
2019-03-11T04:57:23.366Z,2.23
2019-03-11T04:58:33.484Z,2.3
2019-03-11T04:59:43.427Z,2.23
2019-03-11T05:00:53.124Z,2.3
2019-03-11T05:02:03.065Z,2.25
2019-03-11T05:03:13.011Z,2.28
2019-03-11T05:04:22.699Z,2.26
2019-03-11T05:05:32.391Z,2.32
2019-03-11T05:06:42.337Z,2.26
2019-03-11T05:07:52.036Z,2.3
2019-03-11T05:09:01.980Z,2.34
2019-03-11T05:10:11.665Z,2.33
2019-03-11T05:11:23.844Z,2.32
2019-03-11T05:12:33.838Z,2.36
2019-03-11T05:13:43.770Z,2.33
2019-03-11T05:14:53.464Z,2.34
2019-03-11T05:16:03.393Z,2.36
2019-03-11T05:17:13.332Z,2.3
2019-03-11T05:18:23.257Z,2.34
2019-03-11T05:19:32.964Z,2.32
2019-03-11T05:20:42.658Z,2.37
2019-03-11T05:21:52.332Z,2.43
2019-03-11T05:23:02.276Z,2.34
2019-03-11T05:24:11.721Z,2.37
2019-03-11T05:25:21.419Z,2.37
2019-03-11T05:26:30.873Z,2.4
2019-03-11T05:27:40.797Z,2.37
2019-03-11T05:28:51.879Z,2.34
2019-03-11T05:30:01.625Z,2.4
2019-03-11T05:31:11.794Z,2.44
2019-03-11T05:32:21.719Z,2.41
2019-03-11T05:33:31.157Z,2.4
2019-03-11T05:34:40.862Z,2.46
2019-03-11T05:35:50.802Z,2.44
2019-03-11T05:37:00.737Z,2.47
2019-03-11T05:38:10.701Z,2.5
2019-03-11T05:39:20.649Z,2.44
2019-03-11T05:40:30.593Z,2.5
2019-03-11T05:41:40.535Z,2.52
2019-03-11T05:42:50.223Z,2.5
2019-03-11T05:43:59.921Z,2.46
2019-03-11T05:45:09.616Z,2.5
2019-03-11T05:46:19.627Z,2.46
2019-03-11T05:47:29.615Z,2.47
2019-03-11T05:48:39.553Z,2.52
2019-03-11T05:49:49.243Z,2.46
2019-03-11T05:50:58.937Z,2.52
2019-03-11T05:52:08.892Z,2.61
2019-03-11T05:53:18.845Z,2.59
2019-03-11T05:54:28.529Z,2.5
2019-03-11T05:55:38.476Z,2.58
2019-03-11T05:56:48.507Z,2.51
2019-03-11T05:57:58.455Z,2.59
2019-03-11T05:59:08.407Z,2.62
2019-03-11T06:00:18.364Z,2.61
2019-03-11T06:01:28.316Z,2.61
2019-03-11T06:02:39.167Z,2.55
2019-03-11T06:03:49.105Z,2.59
2019-03-11T06:04:58.807Z,2.57
2019-03-11T06:06:08.749Z,2.58
2019-03-11T06:07:18.679Z,2.59
2019-03-11T06:08:28.613Z,2.69
2019-03-11T06:09:38.548Z,2.61
2019-03-11T06:10:48.247Z,2.62
2019-03-11T06:11:57.941Z,2.68
2019-03-11T06:13:07.636Z,2.68
2019-03-11T06:14:17.577Z,2.61
2019-03-11T06:15:27.547Z,2.57
2019-03-11T06:16:37.243Z,2.69
2019-03-11T06:17:47.280Z,2.65
2019-03-11T06:18:57.425Z,2.7
2019-03-11T06:20:07.171Z,2.7
2019-03-11T06:21:17.117Z,2.69
2019-03-11T06:22:26.806Z,2.65
2019-03-11T06:23:36.743Z,2.69
2019-03-11T06:24:46.427Z,2.65
2019-03-11T06:25:56.139Z,2.61
2019-03-11T06:27:05.622Z,2.64
2019-03-11T06:28:15.588Z,2.68
2019-03-11T06:29:34.895Z,2.7
2019-03-11T06:30:44.345Z,2.68
2019-03-11T06:31:54.282Z,2.68
2019-03-11T06:33:03.996Z,2.57
2019-03-11T06:34:13.945Z,2.58
2019-03-11T06:35:23.644Z,2.64
2019-03-11T06:36:33.077Z,2.7
2019-03-11T06:37:42.524Z,2.68
2019-03-11T06:38:52.479Z,2.58
2019-03-11T06:40:12.746Z,2.58
2019-03-11T06:41:22.712Z,2.58
2019-03-11T06:42:32.410Z,2.57
2019-03-11T06:43:42.336Z,2.57
2019-03-11T06:44:52.159Z,2.46
2019-03-11T06:46:02.111Z,2.51
2019-03-11T06:47:12.048Z,2.52
2019-03-11T06:48:21.744Z,2.52
2019-03-11T06:49:31.435Z,2.47
2019-03-11T06:50:41.632Z,2.55
2019-03-11T06:51:51.334Z,2.58
2019-03-11T06:53:01.027Z,2.51
2019-03-11T06:54:10.977Z,2.52
2019-03-11T06:55:20.410Z,2.5
2019-03-11T06:56:30.346Z,2.58
2019-03-11T06:57:40.299Z,2.59
2019-03-11T06:58:49.816Z,2.52
2019-03-11T06:59:59.003Z,2.47
2019-03-11T07:01:08.698Z,2.46
2019-03-11T07:02:18.687Z,2.52
2019-03-11T07:03:28.122Z,2.58
2019-03-11T07:04:37.584Z,2.58
2019-03-11T07:05:47.292Z,2.62
2019-03-11T07:06:57.480Z,2.58
2019-03-11T07:08:07.215Z,2.55
2019-03-11T07:09:17.365Z,2.59
2019-03-11T07:10:27.532Z,2.5
2019-03-11T07:11:37.508Z,2.54
2019-03-11T07:12:47.524Z,2.46
2019-03-11T07:13:57.478Z,2.46
2019-03-11T07:15:07.436Z,2.57
2019-03-11T07:16:17.372Z,2.51
2019-03-11T07:17:27.336Z,2.51
2019-03-11T07:18:37.349Z,2.59
2019-03-11T07:19:47.306Z,2.51
2019-03-11T07:20:57.232Z,2.58
2019-03-11T07:22:07.190Z,2.61
2019-03-11T07:23:16.638Z,2.59
2019-03-11T07:24:26.332Z,2.65
2019-03-11T07:25:36.282Z,2.7
2019-03-11T07:26:45.970Z,2.65
2019-03-11T07:27:55.921Z,2.69
2019-03-11T07:29:05.388Z,2.57
2019-03-11T07:30:15.358Z,2.7
2019-03-11T07:31:25.309Z,2.75
2019-03-11T07:32:35.255Z,2.69
2019-03-11T07:33:44.711Z,2.69
2019-03-11T07:34:54.443Z,2.69
2019-03-11T07:36:15.050Z,2.76
2019-03-11T07:37:25.366Z,2.73
2019-03-11T07:38:35.337Z,2.8
2019-03-11T07:39:45.314Z,2.87
2019-03-11T07:40:55.015Z,2.88
2019-03-11T07:42:04.985Z,2.95
2019-03-11T07:43:14.930Z,2.95
2019-03-11T07:44:24.983Z,2.93
2019-03-11T07:45:34.938Z,2.97
2019-03-11T07:46:45.630Z,2.9
2019-03-11T07:47:55.756Z,3.05
2019-03-11T07:49:05.463Z,3.06
2019-03-11T07:50:15.403Z,3.12
2019-03-11T07:51:25.108Z,3.08
2019-03-11T07:52:34.808Z,3.09
2019-03-11T07:53:44.793Z,3.05
2019-03-11T07:54:54.759Z,3.16
2019-03-11T07:56:04.706Z,3.06
2019-03-11T07:57:15.847Z,3.19
2019-03-11T07:58:25.808Z,3.19
2019-03-11T07:59:35.744Z,3.27
2019-03-11T08:00:55.766Z,3.21
2019-03-11T08:02:05.730Z,3.21
2019-03-11T08:03:15.168Z,3.33
2019-03-11T08:04:25.122Z,3.3
2019-03-11T08:05:35.082Z,3.33
2019-03-11T08:06:45.053Z,3.34
2019-03-11T08:07:55.228Z,3.31
2019-03-11T08:09:05.191Z,3.37
2019-03-11T08:10:14.646Z,3.31
2019-03-11T08:11:24.602Z,3.31
2019-03-11T08:12:34.709Z,3.34
2019-03-11T08:13:44.734Z,3.33
2019-03-11T08:14:54.192Z,3.31
2019-03-11T08:16:03.883Z,3.33
2019-03-11T08:17:14.116Z,3.24
2019-03-11T08:18:34.117Z,3.22
2019-03-11T08:19:44.384Z,3.27
2019-03-11T08:20:54.341Z,3.22
2019-03-11T08:22:04.330Z,3.22
2019-03-11T08:23:14.291Z,3.29
2019-03-11T08:24:24.258Z,3.33
2019-03-11T08:25:34.218Z,3.22
2019-03-11T08:26:44.184Z,3.21
2019-03-11T08:27:54.125Z,3.21
2019-03-11T08:29:03.839Z,3.21
2019-03-11T08:30:13.777Z,3.21
2019-03-11T08:31:23.550Z,3.15
2019-03-11T08:32:32.787Z,3.24
2019-03-11T08:33:42.248Z,3.24
2019-03-11T08:34:52.266Z,3.26
2019-03-11T08:36:02.025Z,3.29
2019-03-11T08:37:11.482Z,3.26
2019-03-11T08:38:21.658Z,3.29
2019-03-11T08:39:31.375Z,3.26
2019-03-11T08:40:42.904Z,3.31
2019-03-11T08:41:53.073Z,3.31
2019-03-11T08:43:03.014Z,3.31
2019-03-11T08:44:13.037Z,3.3
2019-03-11T08:45:22.994Z,3.3
2019-03-11T08:46:32.450Z,3.3
2019-03-11T08:47:42.394Z,3.34
2019-03-11T08:48:52.094Z,3.31
2019-03-11T08:50:02.051Z,3.36
2019-03-11T08:51:12.097Z,3.41
2019-03-11T08:52:22.064Z,3.46
2019-03-11T08:53:32.034Z,3.41
2019-03-11T08:54:42.012Z,3.45
2019-03-11T08:55:51.981Z,3.46
2019-03-11T08:57:01.444Z,3.46
2019-03-11T08:58:11.433Z,3.52
2019-03-11T08:59:21.514Z,3.5
2019-03-11T09:00:31.712Z,3.5
2019-03-11T09:01:41.671Z,3.61
2019-03-11T09:02:51.651Z,3.52
2019-03-11T09:04:01.859Z,3.59
2019-03-11T09:05:11.852Z,3.55
2019-03-11T09:06:21.872Z,3.58
2019-03-11T09:07:31.839Z,3.52
2019-03-11T09:08:41.816Z,3.61
2019-03-11T09:09:51.294Z,3.64
2019-03-11T09:11:01.273Z,3.64
2019-03-11T09:12:10.754Z,3.63
2019-03-11T09:13:20.704Z,3.64
2019-03-11T09:14:30.683Z,3.82
2019-03-11T09:15:40.455Z,3.66
2019-03-11T09:16:50.409Z,3.67
2019-03-11T09:18:00.157Z,3.68
2019-03-11T09:19:10.158Z,3.7
2019-03-11T09:20:20.132Z,3.67
2019-03-11T09:21:29.589Z,3.68
2019-03-11T09:22:39.532Z,3.7
2019-03-11T09:23:49.477Z,3.71
2019-03-11T09:24:59.450Z,3.81
2019-03-11T09:26:09.406Z,3.68
2019-03-11T09:27:19.099Z,3.67
2019-03-11T09:28:29.453Z,3.67
2019-03-11T09:29:40.117Z,3.7
2019-03-11T09:30:50.186Z,3.66
2019-03-11T09:32:00.203Z,3.71
2019-03-11T09:33:11.017Z,3.63
2019-03-11T09:34:20.997Z,3.63
2019-03-11T09:35:30.942Z,3.59
2019-03-11T09:36:40.917Z,3.58
2019-03-11T09:37:50.917Z,3.52
2019-03-11T09:39:00.656Z,3.53
2019-03-11T09:40:10.357Z,3.56
2019-03-11T09:41:20.049Z,3.61
2019-03-11T09:42:30.008Z,3.55
2019-03-11T09:43:39.964Z,3.64
2019-03-11T09:44:50.009Z,3.64
2019-03-11T09:45:59.497Z,3.67
2019-03-11T09:47:09.458Z,3.7
2019-03-11T09:48:18.947Z,3.76
2019-03-11T09:49:28.906Z,3.71
2019-03-11T09:50:38.898Z,3.7
2019-03-11T09:51:48.584Z,3.78
2019-03-11T09:52:58.617Z,3.81
2019-03-11T09:54:08.591Z,3.94
2019-03-11T09:55:18.302Z,3.88
2019-03-11T09:56:28.306Z,3.86
2019-03-11T09:57:48.367Z,3.84
2019-03-11T09:58:58.388Z,3.81
2019-03-11T10:00:09.055Z,3.89
2019-03-11T10:01:19.564Z,3.89
2019-03-11T10:02:29.330Z,3.78
2019-03-11T10:03:39.038Z,3.82
2019-03-11T10:04:48.991Z,3.86
2019-03-11T10:05:58.444Z,3.91
2019-03-11T10:07:08.411Z,3.86
2019-03-11T10:08:18.384Z,3.86
2019-03-11T10:09:28.132Z,3.85
2019-03-11T10:10:38.095Z,3.95
2019-03-11T10:11:48.079Z,3.99
2019-03-11T10:12:58.038Z,4.02
2019-03-11T10:14:08.012Z,4.24
2019-03-11T10:15:17.831Z,4.34
2019-03-11T10:16:27.693Z,4.32
2019-03-11T10:17:37.484Z,4.38
2019-03-11T10:18:47.199Z,4.32
2019-03-11T10:19:58.085Z,4.36
2019-03-11T10:21:08.122Z,4.36
2019-03-11T10:22:18.523Z,4.36
2019-03-11T10:23:36.527Z,4.45
2019-03-11T10:24:46.511Z,4.42
2019-03-11T10:25:56.485Z,4.36
2019-03-11T10:27:06.214Z,4.38
2019-03-11T10:28:15.942Z,4.52
2019-03-11T10:29:25.900Z,4.36
2019-03-11T10:30:35.884Z,4.3
2019-03-11T10:31:46.115Z,4.25
2019-03-11T10:32:55.912Z,4.14
2019-03-11T10:34:05.894Z,3.99
2019-03-11T10:35:35.675Z,3.96
2019-03-11T10:36:45.726Z,3.88
2019-03-11T10:37:55.209Z,3.82
2019-03-11T10:39:05.308Z,3.82
2019-03-11T10:40:15.470Z,3.86
2019-03-11T10:41:25.164Z,3.85
2019-03-11T10:42:34.878Z,3.86
2019-03-11T10:43:44.843Z,3.89
2019-03-11T10:44:54.818Z,3.81
2019-03-11T10:46:04.782Z,3.89
2019-03-11T10:47:14.723Z,3.86
2019-03-11T10:48:24.438Z,3.81
2019-03-11T10:49:44.666Z,3.88
2019-03-11T10:50:54.552Z,3.96
2019-03-11T10:52:07.151Z,3.96
2019-03-11T10:53:18.358Z,4.02
2019-03-11T10:54:28.107Z,4.13
2019-03-11T10:55:37.833Z,4.14
2019-03-11T10:56:47.541Z,4.25
2019-03-11T10:57:57.502Z,4.38
2019-03-11T10:59:07.233Z,4.32
2019-03-11T11:00:17.252Z,4.5
2019-03-11T11:01:27.246Z,4.52
2019-03-11T11:02:37.199Z,4.52
2019-03-11T11:03:46.717Z,4.53
2019-03-11T11:04:56.658Z,4.66
2019-03-11T11:06:06.386Z,4.67
2019-03-11T11:07:16.119Z,4.74
2019-03-11T11:08:26.082Z,4.78
2019-03-11T11:09:35.806Z,4.92
2019-03-11T11:10:45.795Z,4.9
2019-03-11T11:11:55.762Z,5.01
2019-03-11T11:13:05.779Z,4.95
2019-03-11T11:14:15.312Z,4.98
2019-03-11T11:15:25.477Z,4.98
2019-03-11T11:16:35.185Z,5.16
2019-03-11T11:17:44.628Z,5.16
2019-03-11T11:18:54.600Z,5.15
2019-03-11T11:20:08.649Z,5.02
2019-03-11T11:21:18.109Z,4.97
2019-03-11T11:22:27.849Z,5.13
2019-03-11T11:23:37.299Z,5
2019-03-11T11:24:47.291Z,4.78
2019-03-11T11:25:57.008Z,4.87
2019-03-11T11:27:06.945Z,4.71
2019-03-11T11:28:16.726Z,4.61
2019-03-11T11:29:26.182Z,4.5
2019-03-11T11:30:36.145Z,4.38
2019-03-11T11:31:45.858Z,4.32
2019-03-11T11:32:55.567Z,4.21
2019-03-11T11:34:05.298Z,4.24
2019-03-11T11:35:15.297Z,4.16
2019-03-11T11:36:25.027Z,4.14
2019-03-11T11:37:34.738Z,4.12
2019-03-11T11:38:44.694Z,4
2019-03-11T11:39:54.449Z,4
2019-03-11T11:41:03.893Z,4.02
2019-03-11T11:42:13.598Z,4
2019-03-11T11:43:23.563Z,4.02
2019-03-11T11:44:33.269Z,4.03
2019-03-11T11:45:43.223Z,3.92
2019-03-11T11:46:53.177Z,3.95
2019-03-11T11:48:03.121Z,3.85
2019-03-11T11:49:15.455Z,3.89
2019-03-11T11:50:25.463Z,3.78
2019-03-11T11:51:35.218Z,3.91
2019-03-11T11:52:45.271Z,3.78
2019-03-11T11:53:55.467Z,3.66
2019-03-11T11:55:05.169Z,3.48
2019-03-11T11:56:15.132Z,3.48
2019-03-11T11:57:25.079Z,3.48
2019-03-11T11:58:34.850Z,3.49
2019-03-11T11:59:56.153Z,3.37
2019-03-11T12:01:05.889Z,3.43
2019-03-11T12:02:15.588Z,3.45
2019-03-11T12:03:25.303Z,3.45
2019-03-11T12:04:35.295Z,3.3
2019-03-11T12:05:45.274Z,3.34
2019-03-11T12:06:55.250Z,3.31
2019-03-11T12:08:05.231Z,3.24
2019-03-11T12:09:15.186Z,3.29
2019-03-11T12:10:25.199Z,3.36
2019-03-11T12:11:35.184Z,3.34
2019-03-11T12:12:45.154Z,3.33
2019-03-11T12:13:54.871Z,3.46
2019-03-11T12:15:04.069Z,3.3
2019-03-11T12:16:13.824Z,3.33
2019-03-11T12:17:25.921Z,3.45
2019-03-11T12:18:35.679Z,3.48
2019-03-11T12:19:45.651Z,3.43
2019-03-11T12:20:55.339Z,3.34
2019-03-11T12:22:05.319Z,3.34
2019-03-11T12:23:15.331Z,3.37
2019-03-11T12:24:25.043Z,3.45
2019-03-11T12:25:35.004Z,3.46
2019-03-11T12:26:46.187Z,3.46
2019-03-11T12:28:00.699Z,3.41
2019-03-11T12:29:10.749Z,3.52
2019-03-11T12:30:20.451Z,3.49
2019-03-11T12:31:30.531Z,3.56
2019-03-11T12:32:40.221Z,3.56
2019-03-11T12:33:49.667Z,3.68
2019-03-11T12:34:59.620Z,3.68
2019-03-11T12:36:09.692Z,3.67
2019-03-11T12:37:19.468Z,3.66
2019-03-11T12:38:31.309Z,3.74
2019-03-11T12:39:41.035Z,3.71
2019-03-11T12:40:50.983Z,3.7
2019-03-11T12:42:00.959Z,3.81
2019-03-11T12:43:10.665Z,3.81
2019-03-11T12:44:20.614Z,3.74
2019-03-11T12:45:30.327Z,3.84
2019-03-11T12:46:40.128Z,3.86
2019-03-11T12:47:50.167Z,3.89
2019-03-11T12:48:59.876Z,3.89
2019-03-11T12:50:09.567Z,3.86
2019-03-11T12:51:22.312Z,3.86
2019-03-11T12:52:32.263Z,3.82
2019-03-11T12:53:42.218Z,3.96
2019-03-11T12:54:51.915Z,3.91
2019-03-11T12:56:01.885Z,3.91
2019-03-11T12:57:11.626Z,3.99
2019-03-11T12:58:21.595Z,3.99
2019-03-11T12:59:31.402Z,3.99
2019-03-11T13:00:48.148Z,4.16
2019-03-11T13:01:57.910Z,4.16
2019-03-11T13:03:07.939Z,4.25
2019-03-11T13:04:17.897Z,4.28
2019-03-11T13:05:27.875Z,4.31
2019-03-11T13:06:37.632Z,4.3
2019-03-11T13:07:47.326Z,4.24
2019-03-11T13:08:57.270Z,4.25
2019-03-11T13:10:06.972Z,4.16
2019-03-11T13:11:16.695Z,4.16
2019-03-11T13:12:26.414Z,4.22
2019-03-11T13:13:36.425Z,4.14
2019-03-11T13:14:46.188Z,4.13
2019-03-11T13:15:56.232Z,4.04
2019-03-11T13:17:05.954Z,4.09
2019-03-11T13:18:15.948Z,4.02
2019-03-11T13:19:25.642Z,4.06
2019-03-11T13:20:35.587Z,4.14
2019-03-11T13:21:45.563Z,4.12
2019-03-11T13:22:55.043Z,4.06
2019-03-11T13:24:04.253Z,4.09
2019-03-11T13:25:14.238Z,4.09
2019-03-11T13:26:23.930Z,4
2019-03-11T13:27:33.650Z,4.1
2019-03-11T13:28:43.353Z,4.03
2019-03-11T13:29:53.044Z,4.14
2019-03-11T13:31:02.738Z,4.09
2019-03-11T13:32:12.964Z,4.21
2019-03-11T13:33:22.456Z,4.21
2019-03-11T13:34:32.439Z,4.36
2019-03-11T13:35:42.410Z,4.34
2019-03-11T13:36:52.117Z,4.25
2019-03-11T13:38:01.826Z,4.27
2019-03-11T13:39:11.534Z,4.24
2019-03-11T13:40:21.471Z,4.25
2019-03-11T13:41:31.446Z,4.22
2019-03-11T13:42:41.171Z,4.18
2019-03-11T13:43:53.243Z,4.16
2019-03-11T13:45:02.969Z,4.14
2019-03-11T13:46:12.926Z,4.02
2019-03-11T13:47:22.864Z,3.99
2019-03-11T13:48:32.301Z,4.14
2019-03-11T13:49:41.721Z,4
2019-03-11T13:50:51.685Z,4.03
2019-03-11T13:52:01.649Z,4.03
2019-03-11T13:53:11.608Z,4.04
2019-03-11T13:54:21.598Z,3.94
2019-03-11T13:55:31.560Z,3.92
2019-03-11T13:56:41.508Z,3.95
2019-03-11T13:57:51.217Z,3.95
2019-03-11T13:59:00.908Z,3.88
2019-03-11T14:00:10.881Z,3.89
2019-03-11T14:01:21.342Z,3.88
2019-03-11T14:02:31.457Z,3.92
2019-03-11T14:03:41.510Z,3.92
2019-03-11T14:04:51.472Z,3.91
2019-03-11T14:06:01.443Z,4.02
2019-03-11T14:07:11.150Z,3.96
2019-03-11T14:08:20.586Z,4.06
2019-03-11T14:09:30.549Z,4.07
2019-03-11T14:10:40.501Z,4.06
2019-03-11T14:11:50.461Z,3.96
2019-03-11T14:13:00.410Z,4.1
2019-03-11T14:14:10.395Z,4.14
2019-03-11T14:15:20.152Z,4.21
2019-03-11T14:16:30.104Z,4.25
2019-03-11T14:17:40.031Z,4.16
2019-03-11T14:18:49.739Z,4.14
2019-03-11T14:19:59.677Z,4.13
2019-03-11T14:21:09.979Z,4.12
2019-03-11T14:22:30.056Z,4.09
2019-03-11T14:23:40.002Z,4.1
2019-03-11T14:24:49.956Z,4.14
2019-03-11T14:25:59.914Z,4.02
2019-03-11T14:27:09.376Z,4
2019-03-11T14:28:19.348Z,4.13
2019-03-11T14:29:29.073Z,4.13
2019-03-11T14:30:38.782Z,4.21
2019-03-11T14:31:48.564Z,4.27
2019-03-11T14:32:58.506Z,4.38
2019-03-11T14:34:08.460Z,4.36
2019-03-11T14:35:18.429Z,4.36
2019-03-11T14:36:29.193Z,4.28
2019-03-11T14:37:39.148Z,4.31
2019-03-11T14:38:48.610Z,4.43
2019-03-11T14:39:58.320Z,4.28
2019-03-11T14:41:08.307Z,4.36
2019-03-11T14:42:18.028Z,4.34
2019-03-11T14:43:28.521Z,4.39
2019-03-11T14:44:38.256Z,4.52
2019-03-11T14:45:47.944Z,4.7
2019-03-11T14:46:57.893Z,4.86
2019-03-11T14:48:07.823Z,4.98
2019-03-11T14:49:17.770Z,5.01
2019-03-11T14:50:27.738Z,5.07
2019-03-11T14:51:37.710Z,5.12
2019-03-11T14:52:47.660Z,5.18
2019-03-11T14:53:57.780Z,5.13
2019-03-11T14:55:07.486Z,5.25
2019-03-11T14:56:17.465Z,5.38
2019-03-11T14:57:26.667Z,5.58
2019-03-11T14:58:36.646Z,5.65
2019-03-11T14:59:46.798Z,5.73
2019-03-11T15:00:56.764Z,5.7
2019-03-11T15:02:06.762Z,5.72
2019-03-11T15:03:16.440Z,5.79
2019-03-11T15:04:26.408Z,5.87
2019-03-11T15:05:36.333Z,5.98
2019-03-11T15:06:46.281Z,6.15
2019-03-11T15:07:56.232Z,6.05
2019-03-11T15:09:06.186Z,6.15
2019-03-11T15:10:15.908Z,6.09
2019-03-11T15:11:25.877Z,6.15
2019-03-11T15:12:35.828Z,6.19
2019-03-11T15:13:45.297Z,6.12
2019-03-11T15:14:55.006Z,6.13
2019-03-11T15:16:04.962Z,6.16
2019-03-11T15:17:14.915Z,6.19
2019-03-11T15:18:24.621Z,6.28
2019-03-11T15:19:34.587Z,6.07
2019-03-11T15:20:44.537Z,6.06
2019-03-11T15:21:54.492Z,6.01
2019-03-11T15:23:23.197Z,6.02
2019-03-11T15:24:32.904Z,6.1
2019-03-11T15:25:42.878Z,6.13
2019-03-11T15:26:52.875Z,6.25
2019-03-11T15:28:02.852Z,6.25
2019-03-11T15:29:12.569Z,6.12
2019-03-11T15:30:22.543Z,6.15
2019-03-11T15:31:32.522Z,6.05
2019-03-11T15:32:42.206Z,5.9
2019-03-11T15:33:54.319Z,5.69
2019-03-11T15:35:04.281Z,5.77
2019-03-11T15:36:14.255Z,5.62